Time;durP1;ratioP1;P1;durP2;ratioP2;P2;SDS_P1;SDS_P2;PMS_P1;PMS_P2;Temp;Humidity;BMP_temperature;BMP_pressure;BME280_temperature;BME280_humidity;BME280_pressure;Samples;Min_cycle;Max_cycle;Signal;HPM_P1;HPM_P2
2022/01/06 00:01:05;;;;;;;11.50;4.60;;;;;;;1.10;75.81;97513.92;108234;1274;22565;-72
2022/01/06 00:03:33;;;;;;;11.40;4.40;;;;;;;1.08;76.10;97516.09;108238;1274;22560;-72
2022/01/06 00:06:05;;;;;;;13.90;4.80;;;;;;;1.05;76.16;97511.58;108224;1274;22535;-72
2022/01/06 00:08:34;;;;;;;12.50;4.80;;;;;;;1.04;75.77;97511.84;108235;1274;22549;-76
2022/01/06 00:11:02;;;;;;;10.10;4.20;;;;;;;0.99;75.03;97503.48;108224;1274;22613;-73
2022/01/06 00:13:57;;;;;;;15.50;4.60;;;;;;;0.96;75.14;97500.52;108208;1274;22572;-75
2022/01/06 00:24:27;;;;;;;18.80;6.20;;;;;;;0.82;74.94;97492.25;108384;1274;22579;-75
2022/01/06 00:26:55;;;;;;;16.90;7.10;;;;;;;0.83;75.46;97495.44;108286;1274;22644;-72
2022/01/06 00:29:21;;;;;;;16.60;6.40;;;;;;;0.85;75.56;97497.23;108246;1274;22567;-73
2022/01/06 00:31:48;;;;;;;18.20;7.50;;;;;;;0.85;76.26;97497.41;108250;1274;22581;-75
2022/01/06 00:34:16;;;;;;;20.10;8.40;;;;;;;0.85;76.39;97501.55;108230;1274;22683;-74
2022/01/06 00:36:43;;;;;;;14.70;5.70;;;;;;;0.82;75.97;97501.51;108214;1274;22541;-77
2022/01/06 00:39:11;;;;;;;14.50;6.00;;;;;;;0.80;75.49;97507.40;108256;1274;23934;-75
2022/01/06 00:41:38;;;;;;;13.80;5.20;;;;;;;0.76;75.52;97502.61;108667;1274;22725;-74
2022/01/06 00:44:07;;;;;;;11.90;5.10;;;;;;;0.75;75.63;97501.11;108214;1274;22535;-73
2022/01/06 00:46:34;;;;;;;13.20;4.60;;;;;;;0.72;75.49;97502.59;108704;1274;22575;-74
2022/01/06 00:49:01;;;;;;;13.20;4.40;;;;;;;0.68;75.45;97518.19;108217;1274;22574;-75
2022/01/06 00:51:28;;;;;;;16.10;5.50;;;;;;;0.64;75.34;97525.03;108211;1274;22624;-73
2022/01/06 00:53:54;;;;;;;14.70;4.60;;;;;;;0.61;75.53;97518.34;108211;1274;22572;-73
2022/01/06 00:56:21;;;;;;;15.40;4.40;;;;;;;0.65;75.77;97523.99;108220;1274;22596;-76
2022/01/06 00:58:48;;;;;;;9.80;3.70;;;;;;;0.66;76.13;97528.58;108224;1274;22542;-76
2022/01/06 01:01:16;;;;;;;9.00;3.20;;;;;;;0.66;76.56;97527.87;108215;1274;22557;-74
2022/01/06 01:03:42;;;;;;;8.60;3.60;;;;;;;0.63;76.66;97525.61;108267;1274;22534;-74
2022/01/06 01:06:09;;;;;;;8.50;3.60;;;;;;;0.63;76.24;97527.85;108212;1274;22551;-78
2022/01/06 01:08:38;;;;;;;9.80;4.50;;;;;;;0.61;75.99;97526.39;108216;1274;22730;-74
2022/01/06 01:11:06;;;;;;;10.40;3.60;;;;;;;0.61;75.96;97527.77;108289;1274;24281;-73
2022/01/06 01:13:42;;;;;;;10.80;4.00;;;;;;;0.60;75.71;97527.64;108435;1274;25486;-73
2022/01/06 01:16:21;;;;;;;11.40;3.70;;;;;;;0.59;75.58;97524.95;108265;1274;237659;-78
2022/01/06 01:18:49;;;;;;;11.10;3.40;;;;;;;0.56;75.59;97527.81;108442;1274;22543;-75
2022/01/06 01:21:18;;;;;;;9.10;3.00;;;;;;;0.53;75.71;97526.23;108437;1274;22558;-74
2022/01/06 01:23:46;;;;;;;9.50;3.30;;;;;;;0.55;75.49;97527.17;108461;1274;22592;-75
2022/01/06 01:26:13;;;;;;;13.20;3.30;;;;;;;0.60;75.97;97526.59;108435;1274;25401;-73
2022/01/06 01:28:46;;;;;;;8.40;3.20;;;;;;;0.67;76.42;97522.70;108440;1274;22640;-73
2022/01/06 01:33:46;;;;;;;11.40;4.60;;;;;;;0.73;76.74;97518.30;108439;1273;22620;-78
2022/01/06 01:36:13;;;;;;;8.10;2.90;;;;;;;0.73;76.31;97511.62;108475;1274;22617;-72
2022/01/06 01:38:40;;;;;;;9.20;3.00;;;;;;;0.74;76.12;97517.05;108421;1274;22553;-78
2022/01/06 01:41:09;;;;;;;9.10;3.80;;;;;;;0.75;76.04;97517.21;108464;1274;22556;-78
2022/01/06 01:43:37;;;;;;;10.10;4.00;;;;;;;0.74;75.63;97515.52;108442;1274;25381;-74
2022/01/06 01:46:13;;;;;;;7.40;3.10;;;;;;;0.72;75.57;97522.13;108443;1274;22559;-74
2022/01/06 01:48:46;;;;;;;9.10;3.20;;;;;;;0.70;75.62;97526.36;108453;1274;24282;-75
2022/01/06 01:51:13;;;;;;;;;;;;;;;0.70;75.59;97525.86;108457;1274;22551;-78
2022/01/06 01:53:40;;;;;;;10.30;2.90;;;;;;;0.73;75.71;97525.02;108445;1274;25260;-72
2022/01/06 01:56:09;;;;;;;8.50;2.90;;;;;;;0.77;76.22;97519.04;108449;1274;22560;-78
2022/01/06 01:58:38;;;;;;;7.40;2.90;;;;;;;0.81;76.92;97521.77;108447;1274;26563;-79
2022/01/06 02:01:05;;;;;;;7.50;3.00;;;;;;;0.81;76.68;97531.51;108477;1274;22598;-74
2022/01/06 02:03:32;;;;;;;9.60;3.20;;;;;;;0.82;76.42;97533.17;108451;1274;22622;-75
2022/01/06 02:05:59;;;;;;;7.50;3.10;;;;;;;0.83;76.25;97536.40;108427;1274;22676;-74
2022/01/06 02:08:26;;;;;;;7.80;2.90;;;;;;;0.85;76.02;97535.98;108437;1274;22540;-78
2022/01/06 02:10:53;;;;;;;8.70;3.30;;;;;;;0.86;76.07;97527.55;108431;1274;25313;-73
2022/01/06 02:13:23;;;;;;;9.60;3.00;;;;;;;0.86;75.88;97534.90;108435;1274;22620;-74
2022/01/06 02:15:50;;;;;;;9.20;3.60;;;;;;;0.86;75.59;97539.70;108442;1274;22624;-72
2022/01/06 02:18:17;;;;;;;8.80;3.20;;;;;;;0.89;75.74;97544.54;108439;1274;22670;-75
2022/01/06 02:20:44;;;;;;;9.70;3.60;;;;;;;0.91;76.26;97547.36;108439;1274;22556;-77
2022/01/06 02:23:11;;;;;;;14.50;5.30;;;;;;;0.94;76.93;97548.77;108452;1274;24312;-76
2022/01/06 02:25:38;;;;;;;16.40;6.50;;;;;;;0.93;76.69;97547.09;108413;1274;22764;-73
2022/01/06 02:28:05;;;;;;;17.80;6.00;;;;;;;0.90;76.26;97547.09;108439;1274;24296;-77
2022/01/06 02:30:35;;;;;;;14.60;6.10;;;;;;;0.87;76.23;97548.73;108447;1274;22574;-76
2022/01/06 02:33:03;;;;;;;14.30;6.20;;;;;;;0.86;75.94;97542.80;108440;1274;22627;-73
2022/01/06 02:35:31;;;;;;;15.10;6.50;;;;;;;0.85;75.91;97544.23;108466;1274;25503;-74
2022/01/06 02:37:58;;;;;;;14.40;5.80;;;;;;;0.83;76.10;97546.34;108461;1273;22569;-74
2022/01/06 02:40:27;;;;;;;14.00;5.40;;;;;;;0.84;75.87;97545.80;108459;1274;26637;-75
2022/01/06 02:42:56;;;;;;;11.70;5.50;;;;;;;0.82;75.92;97552.02;108466;1274;22707;-77
2022/01/06 02:45:26;;;;;;;13.40;5.90;;;;;;;0.80;75.99;97556.06;108446;1274;22565;-77
2022/01/06 02:47:54;;;;;;;13.60;5.60;;;;;;;0.85;76.34;97555.34;108486;1274;22536;-77
2022/01/06 02:50:22;;;;;;;15.60;7.00;;;;;;;0.90;76.91;97560.63;108457;1274;22595;-76
2022/01/06 02:52:50;;;;;;;17.90;7.10;;;;;;;0.89;77.13;97563.20;108461;1274;22540;-74
2022/01/06 02:55:17;;;;;;;14.20;5.90;;;;;;;0.88;76.93;97561.07;108446;1274;22588;-76
2022/01/06 02:57:45;;;;;;;13.20;5.60;;;;;;;0.89;76.51;97564.10;108451;1274;22540;-76
2022/01/06 03:00:14;;;;;;;11.10;4.70;;;;;;;0.86;76.57;97564.72;108417;1274;24310;-73
2022/01/06 03:02:43;;;;;;;10.90;4.60;;;;;;;0.86;76.18;97565.77;108449;1274;22566;-77
2022/01/06 03:05:11;;;;;;;10.60;4.60;;;;;;;0.86;75.98;97568.83;108459;1274;23983;-78
2022/01/06 03:07:40;;;;;;;12.40;4.10;;;;;;;0.87;75.98;97573.11;108474;1274;22557;-77
2022/01/06 03:10:11;;;;;;;10.10;3.70;;;;;;;0.85;75.91;97572.98;108455;1274;22559;-74
2022/01/06 03:12:42;;;;;;;11.00;4.40;;;;;;;0.86;75.77;97567.64;108442;1274;22545;-74
2022/01/06 03:15:14;;;;;;;14.40;5.30;;;;;;;0.91;76.36;97568.77;108471;1274;22601;-73
2022/01/06 03:17:44;;;;;;;12.60;4.80;;;;;;;0.97;76.66;97573.02;108471;1274;22514;-77
2022/01/06 03:20:13;;;;;;;12.00;4.80;;;;;;;0.99;77.04;97567.57;108452;1274;22594;-72
2022/01/06 03:22:40;;;;;;;13.40;4.60;;;;;;;0.96;76.90;97570.46;108448;1274;22544;-75
2022/01/06 03:25:10;;;;;;;14.00;4.30;;;;;;;0.97;76.51;97566.48;108447;1274;22868;-73
2022/01/06 03:27:38;;;;;;;13.30;5.10;;;;;;;0.97;76.13;97570.61;108490;1274;24448;-74
2022/01/06 03:30:08;;;;;;;11.20;4.70;;;;;;;0.96;76.23;97572.03;108462;1274;22557;-76
2022/01/06 03:32:35;;;;;;;13.80;5.20;;;;;;;0.95;75.99;97574.61;108435;1274;25359;-78
2022/01/06 03:35:03;;;;;;;11.20;4.70;;;;;;;0.94;76.17;97576.18;108248;1274;22602;-80
2022/01/06 03:37:30;;;;;;;11.90;5.20;;;;;;;0.94;75.81;97575.15;108218;1274;22555;-83
2022/01/06 03:39:57;;;;;;;12.10;5.40;;;;;;;0.97;76.14;97577.09;108236;1274;22566;-77
2022/01/06 03:42:24;;;;;;;17.20;5.60;;;;;;;1.03;76.69;97573.91;108210;1274;23025;-77
2022/01/06 03:44:51;;;;;;;12.70;4.70;;;;;;;1.06;77.14;97580.13;108244;1274;22549;-72
2022/01/06 03:47:18;;;;;;;11.60;5.00;;;;;;;1.06;77.12;97581.16;108256;1274;25274;-72
2022/01/06 03:49:45;;;;;;;10.60;5.20;;;;;;;1.05;76.84;97583.45;108251;1274;22586;-73
2022/01/06 03:52:12;;;;;;;14.70;5.30;;;;;;;1.06;76.40;97582.54;108218;1274;22598;-73
2022/01/06 03:54:38;;;;;;;9.60;4.90;;;;;;;1.06;76.31;97587.88;108210;1274;22541;-74
2022/01/06 03:57:05;;;;;;;13.30;4.80;;;;;;;1.06;76.36;97589.39;108238;1274;22566;-73
2022/01/06 03:59:32;;;;;;;10.60;4.60;;;;;;;1.05;76.11;97589.94;108266;1274;22614;-73
2022/01/06 04:01:59;;;;;;;13.00;4.90;;;;;;;1.05;76.17;97590.82;108208;1274;22535;-73
2022/01/06 04:04:26;;;;;;;11.10;4.80;;;;;;;1.06;75.93;97596.09;108237;1274;22630;-76
2022/01/06 04:06:53;;;;;;;9.40;4.60;;;;;;;1.11;76.11;97596.20;108251;1274;24979;-73
2022/01/06 04:09:20;;;;;;;9.30;4.30;;;;;;;1.16;76.71;97595.48;108231;1274;22561;-77
2022/01/06 04:11:46;;;;;;;12.30;4.60;;;;;;;1.18;76.72;97602.76;108236;1274;22563;-73
2022/01/06 04:14:13;;;;;;;9.10;4.30;;;;;;;1.18;77.06;97603.46;108252;1274;22597;-74
2022/01/06 04:16:41;;;;;;;12.90;3.70;;;;;;;1.18;76.44;97603.10;108247;1274;22549;-73
2022/01/06 04:19:08;;;;;;;9.00;4.00;;;;;;;1.16;76.41;97604.73;108248;1274;22666;-78
2022/01/06 04:21:35;;;;;;;13.70;4.30;;;;;;;1.16;76.17;97603.35;108238;1274;22572;-74
2022/01/06 04:24:02;;;;;;;8.50;3.30;;;;;;;1.16;75.93;97603.23;108240;1274;25391;-72
2022/01/06 04:26:30;;;;;;;9.90;3.60;;;;;;;1.14;75.99;97605.67;108235;1274;22573;-72
2022/01/06 04:28:57;;;;;;;8.60;3.70;;;;;;;1.12;75.90;97602.83;108227;1274;22583;-73
2022/01/06 04:31:23;;;;;;;9.00;4.20;;;;;;;1.13;75.84;97600.77;108249;1274;22547;-72
2022/01/06 04:33:50;;;;;;;11.10;3.90;;;;;;;1.19;76.08;97596.71;108243;1274;22573;-72
2022/01/06 04:36:18;;;;;;;9.10;3.60;;;;;;;1.22;76.57;97598.47;108260;1274;23353;-74
2022/01/06 04:38:45;;;;;;;9.00;4.20;;;;;;;1.22;76.81;97604.31;108272;1274;22553;-72
2022/01/06 04:41:12;;;;;;;8.50;3.80;;;;;;;1.20;76.62;97607.82;108274;1274;22606;-72
2022/01/06 04:43:39;;;;;;;9.40;3.80;;;;;;;1.20;76.38;97613.31;108303;1274;22627;-72
2022/01/06 04:46:06;;;;;;;11.20;3.80;;;;;;;1.20;76.18;97611.42;108243;1274;22546;-72
2022/01/06 04:48:35;;;;;;;8.50;3.70;;;;;;;1.18;76.03;97608.40;108286;1274;22594;-77
2022/01/06 04:51:02;;;;;;;12.10;3.90;;;;;;;1.18;75.97;97615.94;108271;1274;22544;-73
2022/01/06 04:53:29;;;;;;;10.40;4.40;;;;;;;1.18;75.97;97620.41;108272;1274;22549;-75
2022/01/06 04:55:58;;;;;;;11.60;5.10;;;;;;;1.19;75.59;97618.16;108299;1274;22556;-72
2022/01/06 04:58:25;;;;;;;10.40;5.00;;;;;;;1.18;75.61;97623.85;108239;1274;22727;-72
2022/01/06 05:00:51;;;;;;;13.30;4.90;;;;;;;1.18;75.74;97624.88;108250;1274;22582;-72
2022/01/06 05:03:18;;;;;;;12.10;5.20;;;;;;;1.23;76.02;97628.12;108248;1274;22652;-72
2022/01/06 05:05:45;;;;;;;11.30;5.00;;;;;;;1.25;76.49;97627.65;108250;1274;23096;-75
2022/01/06 05:08:12;;;;;;;13.40;5.90;;;;;;;1.27;76.86;97624.81;108249;1274;22551;-73
2022/01/06 05:10:39;;;;;;;12.20;5.90;;;;;;;1.25;76.82;97625.09;108242;1274;22540;-72
2022/01/06 05:13:06;;;;;;;12.50;5.70;;;;;;;1.24;76.57;97625.14;108235;1274;22629;-72
2022/01/06 05:15:32;;;;;;;13.20;6.20;;;;;;;1.24;76.50;97627.05;108264;1274;22566;-72
2022/01/06 05:17:59;;;;;;;14.30;5.70;;;;;;;1.25;76.22;97628.52;108239;1274;22546;-72
2022/01/06 05:20:27;;;;;;;17.10;5.90;;;;;;;1.24;76.11;97628.77;108218;1274;22556;-72
2022/01/06 05:22:57;;;;;;;12.30;5.70;;;;;;;1.23;75.88;97626.58;108197;1274;22562;-72
2022/01/06 05:25:27;;;;;;;13.40;6.70;;;;;;;1.20;76.02;97629.27;108224;1274;22570;-72
2022/01/06 05:27:54;;;;;;;16.70;7.40;;;;;;;1.20;75.90;97636.30;108243;1274;22569;-72
2022/01/06 05:30:21;;;;;;;13.80;7.00;;;;;;;1.25;76.02;97637.64;108202;1274;22563;-72
2022/01/06 05:32:48;;;;;;;13.70;6.30;;;;;;;1.28;76.79;97635.77;108193;1274;24240;-72
2022/01/06 05:35:15;;;;;;;15.00;6.70;;;;;;;1.29;76.90;97642.60;108227;1274;25442;-71
2022/01/06 05:37:42;;;;;;;11.40;6.10;;;;;;;1.27;77.00;97642.86;108228;1274;22677;-72
2022/01/06 05:40:10;;;;;;;13.50;6.50;;;;;;;1.25;76.62;97646.54;108274;1274;22551;-72
2022/01/06 05:42:37;;;;;;;16.80;7.30;;;;;;;1.22;76.39;97650.27;108249;1274;22613;-72
2022/01/06 05:45:06;;;;;;;15.80;7.50;;;;;;;1.19;76.25;97648.66;108211;1274;22573;-72
2022/01/06 05:47:33;;;;;;;16.20;7.80;;;;;;;1.17;76.24;97660.23;108457;1274;23058;-72
2022/01/06 05:50:01;;;;;;;15.70;7.50;;;;;;;1.17;76.20;97657.72;108233;1274;24250;-72
2022/01/06 05:52:27;;;;;;;16.90;7.90;;;;;;;1.18;76.21;97661.77;108223;1274;22634;-75
2022/01/06 05:54:54;;;;;;;16.90;8.00;;;;;;;1.24;76.35;97667.53;108230;1274;22608;-72
2022/01/06 05:57:21;;;;;;;18.70;8.50;;;;;;;1.26;76.75;97669.98;108224;1274;22564;-72
2022/01/06 05:59:48;;;;;;;17.10;7.00;;;;;;;1.27;77.16;97668.91;108208;1274;22549;-73
2022/01/06 06:02:15;;;;;;;14.90;7.00;;;;;;;1.29;77.25;97673.48;108224;1274;24175;-73
2022/01/06 06:04:42;;;;;;;15.30;7.30;;;;;;;1.27;76.87;97673.89;108259;1274;23000;-74
2022/01/06 06:07:09;;;;;;;18.40;7.70;;;;;;;1.26;76.41;97675.48;108225;1274;22560;-72
2022/01/06 06:09:35;;;;;;;15.30;7.30;;;;;;;1.23;76.31;97678.52;108222;1274;25324;-72
2022/01/06 06:12:03;;;;;;;13.10;6.20;;;;;;;1.21;76.10;97688.20;108239;1274;25353;-73
2022/01/06 06:14:30;;;;;;;10.10;4.10;;;;;;;1.18;76.33;97691.95;108216;1274;25373;-75
2022/01/06 06:16:57;;;;;;;16.50;7.40;;;;;;;1.21;75.98;97697.50;108241;1274;22703;-73
2022/01/06 06:19:23;;;;;;;13.40;6.40;;;;;;;1.21;76.37;97700.91;108243;1274;23190;-72
2022/01/06 06:21:50;;;;;;;16.90;6.80;;;;;;;1.25;76.83;97700.59;108231;1274;25364;-72
2022/01/06 06:24:20;;;;;;;14.30;6.40;;;;;;;1.27;77.30;97697.37;108230;1274;22636;-73
2022/01/06 06:26:47;;;;;;;14.60;6.80;;;;;;;1.27;77.24;97709.38;108254;1274;23154;-77
2022/01/06 06:29:13;;;;;;;14.00;7.60;;;;;;;1.26;76.88;97708.56;108262;1274;22710;-73
2022/01/06 06:31:40;;;;;;;17.20;7.70;;;;;;;1.26;76.72;97710.44;108235;1274;22573;-72
2022/01/06 06:34:09;;;;;;;16.90;7.50;;;;;;;1.27;76.48;97713.52;108224;1274;22589;-75
2022/01/06 06:36:35;;;;;;;14.50;6.80;;;;;;;1.26;76.22;97715.42;108256;1274;22651;-74
2022/01/06 06:39:03;;;;;;;12.80;6.50;;;;;;;1.23;76.33;97716.63;108240;1274;22549;-73
2022/01/06 06:41:30;;;;;;;17.10;7.20;;;;;;;1.24;76.30;97715.19;108510;1274;22628;-71
2022/01/06 06:43:57;;;;;;;15.40;8.50;;;;;;;1.29;76.44;97717.36;108216;1274;22961;-72
2022/01/06 06:46:24;;;;;;;17.60;8.70;;;;;;;1.34;77.01;97721.09;108195;1274;23422;-73
2022/01/06 06:48:51;;;;;;;17.20;7.50;;;;;;;1.33;77.06;97724.41;108221;1274;23324;-73
2022/01/06 06:51:18;;;;;;;18.80;8.00;;;;;;;1.32;77.24;97726.34;108199;1274;22544;-74
2022/01/06 06:53:45;;;;;;;18.00;7.10;;;;;;;1.30;76.88;97732.42;108220;1274;22542;-73
2022/01/06 06:56:12;;;;;;;11.10;5.50;;;;;;;1.29;76.82;97734.37;108222;1274;23085;-72
2022/01/06 06:58:39;;;;;;;14.00;5.60;;;;;;;1.26;76.84;97734.65;108220;1274;24424;-71
2022/01/06 07:01:06;;;;;;;12.40;6.10;;;;;;;1.23;76.79;97736.67;108225;1274;24290;-71
2022/01/06 07:03:33;;;;;;;11.30;5.70;;;;;;;1.22;76.89;97734.51;108242;1274;24382;-71
2022/01/06 07:06:00;;;;;;;12.60;5.40;;;;;;;1.27;76.83;97734.11;108249;1274;22558;-72
2022/01/06 07:08:26;;;;;;;16.60;5.60;;;;;;;1.28;77.43;97734.58;108215;1274;24256;-71
2022/01/06 07:10:53;;;;;;;9.10;4.60;;;;;;;1.27;77.83;97739.05;108234;1274;24224;-71
2022/01/06 07:13:20;;;;;;;12.60;6.20;;;;;;;1.25;77.84;97740.90;108222;1274;22622;-71
2022/01/06 07:15:47;;;;;;;13.10;6.00;;;;;;;1.23;77.72;97749.89;108248;1274;22562;-71
2022/01/06 07:18:15;;;;;;;14.40;6.30;;;;;;;1.21;77.57;97757.32;108230;1274;22547;-71
2022/01/06 07:20:42;;;;;;;13.90;6.10;;;;;;;1.22;77.46;97761.74;108249;1274;23216;-72
2022/01/06 07:23:09;;;;;;;13.40;6.10;;;;;;;1.22;77.43;97765.20;108216;1274;22560;-76
2022/01/06 07:25:36;;;;;;;13.60;7.50;;;;;;;1.23;77.12;97762.91;108207;1274;25587;-72
2022/01/06 07:28:04;;;;;;;12.80;7.20;;;;;;;1.26;77.32;97768.09;108254;1274;24227;-72
2022/01/06 07:30:33;;;;;;;11.80;6.70;;;;;;;1.32;77.94;97771.98;108269;1274;22559;-72
2022/01/06 07:33:01;;;;;;;12.70;4.80;;;;;;;1.35;78.31;97771.99;108248;1274;22637;-72
2022/01/06 07:35:28;;;;;;;14.60;6.40;;;;;;;1.36;78.25;97777.30;108464;1274;22563;-71
2022/01/06 07:37:55;;;;;;;15.40;6.30;;;;;;;1.34;78.06;97776.02;108466;1274;22552;-71
2022/01/06 07:40:22;;;;;;;12.80;5.70;;;;;;;1.35;77.67;97780.42;108446;1274;22573;-77
2022/01/06 07:42:49;;;;;;;12.80;6.40;;;;;;;1.37;77.53;97780.67;108472;1274;22563;-75
2022/01/06 07:45:17;;;;;;;12.40;6.60;;;;;;;1.39;77.34;97784.36;108467;1274;22585;-72
2022/01/06 07:47:58;;;;;;;14.50;7.40;;;;;;;1.41;77.40;97782.73;108467;1274;22601;-71
2022/01/06 07:50:29;;;;;;;13.40;7.30;;;;;;;1.46;77.16;97780.45;108474;1274;22737;-71
2022/01/06 07:52:56;;;;;;;11.00;6.70;;;;;;;1.54;77.39;97781.68;108475;1274;24427;-71
2022/01/06 07:55:24;;;;;;;11.60;6.80;;;;;;;1.59;77.81;97788.13;108468;1274;22546;-72
2022/01/06 07:57:51;;;;;;;14.30;5.80;;;;;;;1.64;78.25;97790.17;108454;1274;24228;-77
2022/01/06 08:00:19;;;;;;;16.30;7.50;;;;;;;1.68;78.02;97792.23;108448;1274;22563;-74
2022/01/06 08:02:47;;;;;;;17.30;6.60;;;;;;;1.69;77.71;97793.92;108439;1274;22544;-78
2022/01/06 08:05:15;;;;;;;17.40;6.10;;;;;;;1.72;77.34;97796.16;108453;1274;22557;-72
2022/01/06 08:07:42;;;;;;;20.30;8.10;;;;;;;1.72;77.21;97802.86;108468;1274;22637;-72
2022/01/06 08:10:11;;;;;;;14.60;7.20;;;;;;;1.73;77.13;97806.59;108465;1274;22614;-76
2022/01/06 08:12:38;;;;;;;14.80;6.80;;;;;;;1.74;76.82;97805.54;108340;1274;22597;-75
2022/01/06 08:15:06;;;;;;;13.90;7.70;;;;;;;1.78;77.10;97813.05;108230;1274;25516;-78
2022/01/06 08:17:34;;;;;;;11.70;5.80;;;;;;;1.82;77.44;97814.10;108821;1274;22741;-73
2022/01/06 08:20:00;;;;;;;14.40;6.40;;;;;;;1.87;77.93;97821.94;108386;1274;22601;-72
2022/01/06 08:22:29;;;;;;;15.70;7.40;;;;;;;1.88;77.61;97830.67;108232;1274;25408;-73
2022/01/06 08:24:56;;;;;;;12.50;7.00;;;;;;;1.87;77.49;97838.59;108271;1274;23052;-73
2022/01/06 08:27:23;;;;;;;17.90;6.30;;;;;;;1.89;77.45;97840.73;108229;1274;22646;-74
2022/01/06 08:29:54;;;;;;;9.00;4.10;;;;;;;1.91;77.08;97841.70;108186;1274;22640;-74
2022/01/06 08:32:21;;;;;;;7.80;3.80;;;;;;;1.87;77.25;97841.52;108251;1274;22539;-74
2022/01/06 08:34:48;;;;;;;9.80;3.40;;;;;;;1.91;77.18;97842.90;108227;1274;22550;-74
2022/01/06 08:37:15;;;;;;;7.90;4.00;;;;;;;1.96;77.68;97851.27;108241;1274;22538;-75
2022/01/06 08:39:42;;;;;;;8.00;4.20;;;;;;;1.99;77.96;97861.62;108213;1274;22581;-77
2022/01/06 08:42:11;;;;;;;7.60;3.40;;;;;;;1.97;78.56;97859.30;108211;1274;22777;-74
2022/01/06 08:44:41;;;;;;;12.00;4.90;;;;;;;1.95;78.51;97868.84;108229;1274;22552;-73
2022/01/06 08:47:09;;;;;;;12.20;5.50;;;;;;;2.00;78.35;97868.45;108256;1274;22741;-74
2022/01/06 08:49:37;;;;;;;10.90;4.80;;;;;;;2.01;78.32;97871.83;108240;1274;22572;-73
2022/01/06 08:52:05;;;;;;;12.20;5.60;;;;;;;2.04;78.03;97877.02;108228;1274;22641;-74
2022/01/06 08:54:32;;;;;;;9.90;5.10;;;;;;;2.04;77.73;97877.73;108241;1274;24935;-73
2022/01/06 08:56:59;;;;;;;10.90;5.00;;;;;;;2.04;77.80;97882.89;108207;1274;22694;-74
2022/01/06 08:59:26;;;;;;;6.60;4.00;;;;;;;2.13;77.93;97881.28;108264;1274;22604;-73
2022/01/06 09:01:53;;;;;;;8.10;3.80;;;;;;;2.18;78.38;97882.94;108197;1274;24132;-74
2022/01/06 09:04:20;;;;;;;6.00;2.90;;;;;;;2.18;78.58;97883.81;108229;1274;22555;-75
2022/01/06 09:06:49;;;;;;;6.80;3.60;;;;;;;2.14;78.23;97887.11;108219;1274;25422;-75
2022/01/06 09:09:17;;;;;;;9.90;4.30;;;;;;;2.12;77.76;97893.04;108250;1274;22547;-75
2022/01/06 09:11:44;;;;;;;9.80;4.30;;;;;;;2.05;77.73;97895.35;108399;1274;22561;-74
2022/01/06 09:14:12;;;;;;;9.50;4.00;;;;;;;2.06;77.48;97899.48;108183;1274;22572;-74
2022/01/06 09:16:39;;;;;;;12.90;4.70;;;;;;;2.06;77.45;97896.02;108257;1274;25426;-74
2022/01/06 09:19:06;;;;;;;9.90;5.40;;;;;;;2.05;77.26;97896.25;108214;1274;22559;-74
2022/01/06 09:21:33;;;;;;;9.50;5.00;;;;;;;2.04;77.34;97901.78;108223;1274;22620;-75
2022/01/06 09:24:02;;;;;;;7.60;3.70;;;;;;;2.06;77.58;97906.33;108176;1274;23143;-73
2022/01/06 09:26:29;;;;;;;8.40;3.70;;;;;;;2.06;78.08;97909.23;108181;1274;22658;-76
2022/01/06 09:28:56;;;;;;;12.20;4.50;;;;;;;2.06;78.27;97906.84;108210;1274;23465;-73
2022/01/06 09:31:22;;;;;;;13.00;5.60;;;;;;;2.03;78.00;97908.16;108198;1274;22588;-73
2022/01/06 09:33:49;;;;;;;11.60;4.50;;;;;;;2.01;77.64;97905.00;108187;1274;22557;-73
2022/01/06 09:36:16;;;;;;;11.70;4.60;;;;;;;1.99;77.54;97902.65;108190;1274;22557;-74
2022/01/06 09:38:46;;;;;;;10.80;4.90;;;;;;;1.95;77.42;97913.30;108236;1274;22552;-75
2022/01/06 09:41:14;;;;;;;7.30;2.50;;;;;;;1.93;77.05;97932.97;108212;1274;22575;-75
2022/01/06 09:43:41;;;;;;;6.70;2.30;;;;;;;1.87;76.65;97934.92;108200;1274;25347;-73
2022/01/06 09:46:09;;;;;;;6.60;2.10;;;;;;;1.75;76.89;97945.38;108235;1274;22561;-78
2022/01/06 09:48:37;;;;;;;6.00;1.90;;;;;;;1.64;77.05;97944.64;108211;1274;22621;-74
2022/01/06 09:51:05;;;;;;;5.60;2.00;;;;;;;1.52;77.13;97947.70;108226;1274;22539;-78
2022/01/06 09:53:32;;;;;;;5.40;2.10;;;;;;;1.48;76.83;97952.63;108210;1274;22590;-73
2022/01/06 09:55:59;;;;;;;6.90;2.40;;;;;;;1.46;76.58;97957.54;108214;1274;22625;-75
2022/01/06 09:58:28;;;;;;;8.00;2.40;;;;;;;1.41;76.22;97956.02;108240;1274;22580;-74
2022/01/06 10:00:56;;;;;;;6.50;2.20;;;;;;;1.34;76.21;97962.98;108798;1274;22607;-74
2022/01/06 10:03:38;;;;;;;7.10;2.40;;;;;;;1.36;76.09;97963.10;108270;1274;22734;-74
2022/01/06 10:06:13;;;;;;;6.60;2.20;;;;;;;1.44;75.89;97963.45;108236;1274;22576;-74
2022/01/06 10:08:40;;;;;;;4.10;1.70;;;;;;;1.49;76.20;97969.41;108201;1274;24266;-75
2022/01/06 10:11:19;;;;;;;4.90;2.10;;;;;;;1.60;75.46;97968.66;108198;1274;22649;-74
2022/01/06 10:13:58;;;;;;;6.80;2.90;;;;;;;1.60;75.39;97972.77;108187;1274;24109;-74
2022/01/06 10:16:28;;;;;;;9.60;3.80;;;;;;;1.61;75.40;97977.70;108236;1274;28121;-74
2022/01/06 10:19:01;;;;;;;7.00;2.70;;;;;;;1.65;75.46;97979.77;108299;1274;22557;-75
2022/01/06 10:21:57;;;;;;;8.00;4.10;;;;;;;1.65;75.10;97979.42;108421;1274;24255;-73
2022/01/06 10:24:28;;;;;;;8.40;3.50;;;;;;;1.65;74.68;97980.99;108413;1274;22589;-72
2022/01/06 10:27:06;;;;;;;16.10;5.10;;;;;;;1.60;74.58;97984.63;108423;1274;22570;-74
2022/01/06 10:29:36;;;;;;;6.20;2.80;;;;;;;1.69;75.00;97990.45;108425;1274;22717;-73
2022/01/06 10:32:05;;;;;;;9.10;4.10;;;;;;;1.74;74.55;97989.73;108530;1274;22846;-75
2022/01/06 10:34:34;;;;;;;4.20;2.00;;;;;;;1.72;74.81;97998.21;108518;1274;22580;-73
2022/01/06 10:37:05;;;;;;;4.60;2.00;;;;;;;1.75;74.27;98005.98;108446;1274;22649;-73
2022/01/06 10:39:43;;;;;;;9.30;3.20;;;;;;;1.67;73.57;98003.73;108419;1274;25375;-73
2022/01/06 10:42:11;;;;;;;7.70;3.00;;;;;;;1.59;73.71;98005.10;108430;1274;22550;-75
2022/01/06 10:45:12;;;;;;;7.30;2.00;;;;;;;1.60;73.62;98010.89;108495;1274;22606;-72
2022/01/06 10:47:45;;;;;;;5.00;1.80;;;;;;;1.61;72.61;98009.83;108426;1274;22758;-75
2022/01/06 10:50:20;;;;;;;3.70;1.50;;;;;;;1.55;71.95;98011.23;108451;1274;22633;-73
2022/01/06 10:53:00;;;;;;;5.60;1.60;;;;;;;1.58;71.79;98018.52;108428;1274;22691;-78
2022/01/06 10:55:32;;;;;;;4.40;1.60;;;;;;;1.48;71.27;98017.36;108448;1274;22555;-73
2022/01/06 10:57:59;;;;;;;7.00;2.00;;;;;;;1.42;71.34;98019.46;108461;1274;25452;-74
2022/01/06 11:00:35;;;;;;;5.20;1.90;;;;;;;1.32;71.28;98025.15;108443;1274;22632;-72
2022/01/06 11:03:11;;;;;;;6.30;2.10;;;;;;;1.26;71.21;98027.13;108425;1274;24311;-72
2022/01/06 11:05:41;;;;;;;7.00;2.90;;;;;;;1.20;71.33;98031.64;108458;1274;22552;-76
2022/01/06 11:08:09;;;;;;;7.70;2.50;;;;;;;1.13;71.74;98039.95;108468;1274;22540;-71
2022/01/06 11:10:40;;;;;;;8.70;3.20;;;;;;;1.15;71.98;98042.81;108454;1274;22577;-72
2022/01/06 11:13:07;;;;;;;14.10;5.30;;;;;;;1.09;72.28;98042.99;108416;1274;22568;-75
2022/01/06 11:15:34;;;;;;;12.40;4.10;;;;;;;1.06;72.81;98041.73;108453;1274;25426;-74
2022/01/06 11:18:01;;;;;;;6.60;2.90;;;;;;;1.03;70.38;98046.48;108431;1274;22626;-74
2022/01/06 11:20:28;;;;;;;8.80;3.50;;;;;;;1.04;70.02;98048.14;108437;1274;22559;-75
2022/01/06 11:22:57;;;;;;;10.60;4.40;;;;;;;1.17;69.88;98050.41;108431;1274;23951;-74
2022/01/06 11:25:30;;;;;;;6.70;2.90;;;;;;;1.39;68.80;98056.79;108434;1274;22640;-75
2022/01/06 11:28:02;;;;;;;6.30;2.60;;;;;;;1.47;69.10;98060.78;108453;1274;22638;-74
2022/01/06 11:30:40;;;;;;;11.30;3.90;;;;;;;1.50;68.59;98064.30;108478;1274;22567;-74
2022/01/06 11:33:07;;;;;;;9.30;4.00;;;;;;;1.43;68.33;98065.04;108457;1274;24227;-73
2022/01/06 11:36:17;;;;;;;7.50;3.10;;;;;;;1.36;68.31;98072.52;108440;1274;22568;-74
2022/01/06 11:38:50;;;;;;;4.80;1.90;;;;;;;1.30;67.06;98078.23;108095;1282;25322;-77
2022/01/06 11:41:17;;;;;;;3.80;1.20;;;;;;;1.26;67.46;98079.59;108080;1282;22560;-74
2022/01/06 11:43:46;;;;;;;3.50;1.60;;;;;;;1.21;67.43;98088.02;108106;1282;22602;-75
2022/01/06 11:46:14;;;;;;;4.00;1.40;;;;;;;1.21;66.64;98087.84;108124;1282;25445;-74